Time;durP1;ratioP1;P1;durP2;ratioP2;P2;SDS_P1;SDS_P2;PMS_P1;PMS_P2;Temp;Humidity;BMP_temperature;BMP_pressure;BME280_temperature;BME280_humidity;BME280_pressure;Samples;Min_cycle;Max_cycle;Signal;HPM_P1;HPM_P2
2023/04/03 00:01:28;;;;;;;6.70;1.00;;;;;;;2.24;82.00;102521.38;5074990;28;20441;-66
2023/04/03 00:03:55;;;;;;;4.87;0.93;;;;;;;2.18;80.72;102532.06;5074860;28;20468;-67
2023/04/03 00:06:22;;;;;;;4.83;0.90;;;;;;;2.19;80.94;102521.16;5075103;28;20452;-66
2023/04/03 00:08:49;;;;;;;10.23;2.13;;;;;;;2.18;81.74;102524.84;5075002;28;20444;-67
2023/04/03 00:11:16;;;;;;;8.17;1.40;;;;;;;2.21;81.40;102523.63;5074828;28;20534;-67
2023/04/03 00:13:43;;;;;;;6.23;0.83;;;;;;;2.20;80.11;102528.13;5074560;28;20493;-67
2023/04/03 00:16:11;;;;;;;4.90;1.00;;;;;;;2.19;80.55;102525.69;5074377;28;20943;-67
2023/04/03 00:18:40;;;;;;;5.27;1.20;;;;;;;2.16;80.68;102531.41;5074437;28;20441;-67
2023/04/03 00:21:07;;;;;;;8.00;1.73;;;;;;;2.13;80.75;102532.66;5074220;28;20486;-67
2023/04/03 00:23:34;;;;;;;10.73;2.10;;;;;;;2.07;81.22;102533.41;5074486;28;20564;-66
2023/04/03 00:26:02;;;;;;;6.87;1.90;;;;;;;2.01;80.16;102526.19;5074446;28;20813;-67
2023/04/03 00:28:28;;;;;;;9.03;2.50;;;;;;;2.07;80.56;102536.09;5073190;28;20981;-67
2023/04/03 00:30:55;;;;;;;9.30;1.80;;;;;;;2.08;81.25;102537.75;5073998;28;20576;-66
2023/04/03 00:33:22;;;;;;;6.10;1.40;;;;;;;2.08;80.50;102535.09;5073944;28;20460;-67
2023/04/03 00:35:50;;;;;;;9.43;2.57;;;;;;;2.07;81.35;102533.41;5085157;22;21076;-68
2023/04/03 00:38:16;;;;;;;7.07;1.47;;;;;;;2.03;82.61;102534.81;5054592;28;20446;-67
2023/04/03 00:40:46;;;;;;;9.00;2.17;;;;;;;2.03;82.44;102532.97;5054393;28;20462;-69
2023/04/03 00:43:15;;;;;;;5.40;1.20;;;;;;;1.95;82.73;102525.13;5054390;28;20442;-68
2023/04/03 00:45:43;;;;;;;7.00;1.87;;;;;;;1.95;81.79;102535.00;5053825;28;20869;-69
2023/04/03 00:48:14;;;;;;;8.00;1.60;;;;;;;1.89;82.61;102531.25;5054363;28;20442;-69
2023/04/03 00:50:43;;;;;;;6.97;1.60;;;;;;;1.89;82.58;102528.56;5054255;28;20535;-69
2023/04/03 00:53:17;;;;;;;11.30;1.37;;;;;;;1.90;83.25;102535.56;5053830;28;20974;-69
2023/04/03 00:55:45;;;;;;;6.53;1.40;;;;;;;1.75;83.04;102540.19;5054017;28;20545;-69
2023/04/03 00:58:13;;;;;;;5.67;1.33;;;;;;;1.85;82.58;102534.50;5054017;28;20478;-69
2023/04/03 01:00:47;;;;;;;5.13;0.80;;;;;;;1.80;82.28;102543.09;5053641;28;20954;-69
2023/04/03 01:03:13;;;;;;;6.33;1.07;;;;;;;1.87;82.19;102543.16;5053718;28;20971;-69
2023/04/03 01:05:41;;;;;;;7.80;1.03;;;;;;;1.72;82.10;102538.72;5053845;28;20549;-67
2023/04/03 01:08:08;;;;;;;6.83;1.20;;;;;;;1.77;82.28;102538.13;5053442;28;20453;-67
2023/04/03 01:10:36;;;;;;;5.00;0.93;;;;;;;1.61;82.41;102546.44;5053737;28;20672;-66
2023/04/03 01:13:18;;;;;;;4.87;0.73;;;;;;;1.44;83.87;102548.53;5053700;28;20478;-66
2023/04/03 01:15:45;;;;;;;6.00;1.00;;;;;;;1.44;83.63;102543.22;5053874;28;20462;-69
2023/04/03 01:18:12;;;;;;;9.77;1.30;;;;;;;1.43;83.91;102541.56;5053736;28;20468;-70
2023/04/03 01:21:29;;;;;;;5.40;1.27;;;;;;;1.38;83.44;102539.47;5053373;28;20950;-70
2023/04/03 01:24:08;;;;;;;5.03;0.90;;;;;;;1.26;84.82;102541.81;5028006;28;20860;-70
2023/04/03 01:26:36;;;;;;;7.00;1.00;;;;;;;1.10;86.76;102547.38;5053590;28;20422;-70
2023/04/03 01:29:04;;;;;;;4.63;0.83;;;;;;;1.21;86.29;102544.22;5053436;28;20827;-70
2023/04/03 01:31:44;;;;;;;5.20;0.87;;;;;;;1.14;85.26;102555.84;5053392;28;20454;-70
2023/04/03 01:34:11;;;;;;;8.80;1.77;;;;;;;1.06;86.34;102543.44;5053205;28;20422;-70
2023/04/03 01:36:37;;;;;;;7.80;1.60;;;;;;;1.15;86.49;102546.81;5053131;28;20431;-70
2023/04/03 01:39:04;;;;;;;5.73;1.50;;;;;;;1.07;85.09;102547.78;5053321;28;20438;-70
2023/04/03 01:41:31;;;;;;;7.37;1.83;;;;;;;1.02;86.20;102552.88;5053307;28;20438;-69
2023/04/03 01:43:57;;;;;;;8.63;1.47;;;;;;;0.90;85.75;102557.84;5053167;28;20442;-71
2023/04/03 01:46:24;;;;;;;5.83;1.40;;;;;;;0.93;85.92;102556.63;5053035;28;20462;-71
2023/04/03 01:48:52;;;;;;;8.37;1.97;;;;;;;0.92;84.86;102552.31;5053257;28;20438;-70
2023/04/03 01:51:19;;;;;;;7.53;1.80;;;;;;;0.79;86.02;102562.84;5053271;28;20488;-70
2023/04/03 01:53:45;;;;;;;8.07;2.00;;;;;;;0.77;86.65;102572.88;5052852;28;20448;-70
2023/04/03 01:56:12;;;;;;;7.67;1.80;;;;;;;0.77;86.90;102563.03;5052874;28;20901;-69
2023/04/03 01:58:39;;;;;;;6.70;2.20;;;;;;;0.66;88.12;102564.31;5052797;28;20485;-70
2023/04/03 02:01:06;;;;;;;6.93;1.90;;;;;;;0.62;87.35;102565.72;5053333;28;20817;-70
2023/04/03 02:03:33;;;;;;;15.03;2.17;;;;;;;0.65;88.08;102564.50;5052987;28;20538;-71
2023/04/03 02:06:01;;;;;;;8.83;2.20;;;;;;;0.55;88.63;102570.13;5053833;28;21047;-71
2023/04/03 02:08:28;;;;;;;7.03;2.50;;;;;;;0.66;88.63;102568.81;5054279;28;20478;-72
2023/04/03 02:10:55;;;;;;;9.00;2.00;;;;;;;0.63;88.04;102562.03;5053617;28;21006;-72
2023/04/03 02:13:21;;;;;;;8.40;2.17;;;;;;;0.65;88.15;102572.50;5053262;28;20437;-72
2023/04/03 02:15:48;;;;;;;7.40;2.50;;;;;;;0.60;89.43;102559.75;5053150;28;20553;-72
2023/04/03 02:18:15;;;;;;;10.10;1.73;;;;;;;0.62;89.42;102562.22;5053231;28;20517;-71
2023/04/03 02:20:42;;;;;;;8.87;1.90;;;;;;;0.65;89.78;102554.66;5053156;28;20453;-71
2023/04/03 02:23:10;;;;;;;5.87;1.77;;;;;;;0.68;89.79;102558.81;5053304;28;20482;-71
2023/04/03 02:25:37;;;;;;;6.57;1.40;;;;;;;0.67;89.68;102557.19;5053631;28;20494;-72
2023/04/03 02:28:04;;;;;;;7.70;1.77;;;;;;;0.69;88.84;102573.81;5053263;28;20434;-72
2023/04/03 02:30:30;;;;;;;5.40;1.23;;;;;;;0.74;88.72;102585.56;5052458;28;20505;-72
2023/04/03 02:32:57;;;;;;;6.23;1.13;;;;;;;0.70;89.35;102588.78;5052949;28;20485;-71
2023/04/03 02:35:24;;;;;;;8.73;1.30;;;;;;;0.67;89.47;102587.34;5052661;28;20561;-71
2023/04/03 02:37:50;;;;;;;7.10;1.37;;;;;;;0.65;89.59;102581.34;5052592;28;20983;-72
2023/04/03 02:40:18;;;;;;;6.60;1.47;;;;;;;0.73;89.51;102583.91;5052954;28;20528;-72
2023/04/03 02:42:45;;;;;;;5.43;0.90;;;;;;;0.65;90.00;102591.19;5052964;28;20448;-72
2023/04/03 02:45:12;;;;;;;7.30;1.60;;;;;;;0.67;89.73;102599.84;5052356;28;20458;-71
2023/04/03 02:47:39;;;;;;;6.30;1.27;;;;;;;0.64;89.80;102594.88;5052651;28;20982;-72
2023/04/03 02:50:06;;;;;;;5.70;1.20;;;;;;;0.69;89.56;102601.28;5052878;28;20577;-72
2023/04/03 02:52:35;;;;;;;11.27;1.80;;;;;;;0.65;89.28;102592.00;5056362;28;20446;-72
2023/04/03 02:55:01;;;;;;;6.20;1.53;;;;;;;0.67;88.70;102606.00;5056493;28;20466;-72
2023/04/03 02:57:29;;;;;;;6.83;1.23;;;;;;;0.74;88.39;102598.06;5056528;28;20474;-71
2023/04/03 02:59:56;;;;;;;9.47;1.70;;;;;;;0.79;88.43;102608.19;5056369;28;20544;-71
2023/04/03 03:02:22;;;;;;;7.10;1.53;;;;;;;0.71;87.54;102607.28;5056066;28;20456;-72
2023/04/03 03:04:49;;;;;;;11.70;2.10;;;;;;;0.82;87.06;102613.16;5055900;28;20466;-72
2023/04/03 03:07:16;;;;;;;6.53;1.93;;;;;;;0.73;86.14;102607.91;5056077;28;20442;-71
2023/04/03 03:09:42;;;;;;;9.80;1.73;;;;;;;0.75;86.10;102613.91;5056297;28;20880;-72
2023/04/03 03:12:09;;;;;;;5.67;1.10;;;;;;;0.68;87.28;102606.81;5056482;28;20481;-71
2023/04/03 03:14:37;;;;;;;6.80;1.20;;;;;;;0.67;87.24;102613.16;5055697;28;20490;-72
2023/04/03 03:17:03;;;;;;;12.03;1.90;;;;;;;0.78;87.41;102617.19;5056344;28;20453;-71
2023/04/03 03:19:30;;;;;;;6.50;1.67;;;;;;;0.79;86.90;102616.19;5056267;28;20525;-72
2023/04/03 03:21:56;;;;;;;7.00;1.40;;;;;;;0.82;86.90;102613.16;5055658;28;20435;-70
2023/04/03 03:24:23;;;;;;;6.63;1.40;;;;;;;0.80;86.42;102620.50;5056291;28;20438;-71
2023/04/03 03:26:49;;;;;;;6.90;1.50;;;;;;;0.73;86.88;102615.91;5055838;28;20439;-70
2023/04/03 03:29:16;;;;;;;6.40;1.30;;;;;;;0.74;86.70;102619.41;5055886;28;20442;-69
2023/04/03 03:31:44;;;;;;;6.37;1.40;;;;;;;0.71;85.86;102611.78;5055456;28;20478;-71
2023/04/03 03:34:11;;;;;;;5.73;1.27;;;;;;;0.65;86.34;102621.34;5055423;28;20464;-71
2023/04/03 03:36:38;;;;;;;6.83;1.10;;;;;;;0.59;86.33;102616.75;5055461;28;20897;-72
2023/04/03 03:39:04;;;;;;;4.40;0.50;;;;;;;0.62;86.51;102619.06;5055398;28;20864;-71
2023/04/03 03:41:31;;;;;;;5.70;1.07;;;;;;;0.59;87.32;102614.09;5055675;28;20438;-70
2023/04/03 03:43:58;;;;;;;7.10;1.10;;;;;;;0.59;87.01;102629.25;5055547;28;20445;-72
2023/04/03 03:46:24;;;;;;;5.20;1.03;;;;;;;0.58;87.07;102623.09;5055606;28;20481;-72
2023/04/03 03:48:52;;;;;;;5.77;1.50;;;;;;;0.61;87.31;102616.56;5055521;28;20442;-72
2023/04/03 03:51:19;;;;;;;7.97;1.07;;;;;;;0.57;87.38;102612.59;5055330;28;20589;-72
2023/04/03 03:53:46;;;;;;;11.37;1.60;;;;;;;0.55;86.66;102620.78;5055481;28;20453;-69
2023/04/03 03:56:12;;;;;;;5.17;0.73;;;;;;;0.55;87.96;102623.47;5055043;28;20458;-70
2023/04/03 03:58:39;;;;;;;6.33;1.73;;;;;;;0.61;87.59;102620.03;5054841;28;20530;-70
2023/04/03 04:01:07;;;;;;;6.27;1.47;;;;;;;0.60;87.14;102621.06;5055239;28;20488;-70
2023/04/03 04:03:34;;;;;;;4.93;0.80;;;;;;;0.61;87.63;102606.72;5054881;28;20525;-70
2023/04/03 04:06:02;;;;;;;4.93;0.80;;;;;;;0.53;87.67;102619.31;5054919;28;20549;-71
2023/04/03 04:08:29;;;;;;;4.97;0.80;;;;;;;0.55;87.99;102620.78;5055102;28;20438;-71
2023/04/03 04:10:55;;;;;;;5.50;1.17;;;;;;;0.63;87.65;102610.03;5055107;28;20485;-70
2023/04/03 04:13:22;;;;;;;12.07;1.40;;;;;;;0.61;87.88;102611.22;5054875;28;20534;-70
2023/04/03 04:15:49;;;;;;;4.90;1.10;;;;;;;0.62;87.62;102616.41;5054956;28;20876;-71
2023/04/03 04:18:15;;;;;;;4.83;0.80;;;;;;;0.67;87.89;102610.50;5054815;28;20519;-71
2023/04/03 04:20:42;;;;;;;11.37;1.23;;;;;;;0.61;88.41;102612.03;5054728;28;20533;-71
2023/04/03 04:23:10;;;;;;;4.93;0.93;;;;;;;0.66;88.23;102609.66;5054418;28;20533;-68
2023/04/03 04:25:36;;;;;;;4.63;0.83;;;;;;;0.68;88.90;102617.50;5054799;28;20458;-72
2023/04/03 04:28:03;;;;;;;6.40;0.63;;;;;;;0.69;88.07;102611.97;5054598;28;20819;-71
2023/04/03 04:30:29;;;;;;;4.60;0.80;;;;;;;0.66;87.51;102616.81;5054306;28;21007;-71
2023/04/03 04:32:56;;;;;;;5.13;0.77;;;;;;;0.54;87.97;102610.31;5054545;28;20468;-71
2023/04/03 04:35:22;;;;;;;6.73;1.00;;;;;;;0.49;88.32;102618.88;5054094;28;21018;-72
2023/04/03 04:37:49;;;;;;;5.00;0.87;;;;;;;0.41;88.26;102621.63;5054437;28;20537;-72
2023/04/03 04:40:18;;;;;;;5.30;0.97;;;;;;;0.46;89.05;102629.91;5054118;28;20454;-71
2023/04/03 04:42:44;;;;;;;4.70;0.80;;;;;;;0.35;88.75;102622.34;5054769;28;20445;-71
2023/04/03 04:45:11;;;;;;;6.53;1.03;;;;;;;0.38;89.24;102630.81;5054322;28;20513;-71
2023/04/03 04:47:38;;;;;;;8.73;1.70;;;;;;;0.38;90.02;102630.81;5053964;28;20940;-71
2023/04/03 04:50:05;;;;;;;6.80;0.93;;;;;;;0.39;89.94;102637.78;5053985;28;20963;-71
2023/04/03 04:52:31;;;;;;;7.37;1.40;;;;;;;0.37;89.42;102634.47;5054033;28;20518;-71
2023/04/03 04:54:58;;;;;;;6.30;1.10;;;;;;;0.45;89.21;102636.25;5054151;28;20541;-71
2023/04/03 04:57:26;;;;;;;6.90;0.87;;;;;;;0.52;89.01;102644.31;5054125;28;20886;-72
2023/04/03 04:59:53;;;;;;;7.60;1.27;;;;;;;0.47;89.21;102640.38;5053919;28;20533;-71
2023/04/03 05:02:19;;;;;;;10.57;1.20;;;;;;;0.52;89.49;102634.47;5053777;28;21026;-71
2023/04/03 05:04:46;;;;;;;6.13;1.67;;;;;;;0.52;89.47;102644.31;5053674;28;20537;-71
2023/04/03 05:07:12;;;;;;;5.23;0.90;;;;;;;0.54;89.39;102647.66;5053703;28;20962;-70
2023/04/03 05:09:41;;;;;;;5.17;1.10;;;;;;;0.57;89.22;102648.09;5053931;28;20521;-70
2023/04/03 05:12:08;;;;;;;5.10;0.90;;;;;;;0.55;89.59;102655.44;5053636;28;20477;-71
2023/04/03 05:14:36;;;;;;;4.50;0.90;;;;;;;0.48;89.91;102651.84;5053218;28;20529;-70
2023/04/03 05:17:03;;;;;;;5.30;0.77;;;;;;;0.43;89.97;102651.56;5053807;28;20442;-71
2023/04/03 05:19:29;;;;;;;5.10;0.80;;;;;;;0.46;89.55;102653.88;5053496;28;20529;-71
2023/04/03 05:21:56;;;;;;;11.00;1.43;;;;;;;0.44;90.39;102650.56;5053567;28;20517;-70
2023/04/03 05:24:23;;;;;;;8.23;1.00;;;;;;;0.47;91.24;102655.53;5053319;28;20449;-70
2023/04/03 05:26:49;;;;;;;16.33;1.97;;;;;;;0.59;90.08;102659.41;5053683;28;20450;-70
2023/04/03 05:29:16;;;;;;;5.10;1.00;;;;;;;0.63;90.01;102654.53;5053499;28;20517;-70
2023/04/03 05:31:44;;;;;;;5.33;0.90;;;;;;;0.66;90.26;102662.97;5053601;28;20488;-70
2023/04/03 05:34:10;;;;;;;7.83;0.80;;;;;;;0.71;90.39;102660.63;5053045;28;20533;-71
2023/04/03 05:36:37;;;;;;;8.13;0.80;;;;;;;0.79;90.17;102665.00;5053385;28;20529;-70
2023/04/03 05:39:04;;;;;;;5.17;1.03;;;;;;;0.81;90.35;102671.00;5053712;28;20448;-70
2023/04/03 05:41:30;;;;;;;6.87;1.43;;;;;;;0.90;90.64;102664.56;5053237;28;20445;-70
2023/04/03 05:43:57;;;;;;;6.80;0.93;;;;;;;0.90;89.13;102664.56;5053231;28;20537;-70
2023/04/03 05:46:23;;;;;;;7.80;1.60;;;;;;;0.82;89.76;102667.31;5053233;28;20477;-66
2023/04/03 05:48:51;;;;;;;6.50;1.20;;;;;;;0.99;90.19;102668.78;5053123;28;20447;-67
2023/04/03 05:51:20;;;;;;;7.80;1.60;;;;;;;1.12;89.88;102668.13;5053128;28;20525;-67
2023/04/03 05:53:48;;;;;;;6.77;1.70;;;;;;;1.21;89.54;102679.53;5053009;28;20892;-68
2023/04/03 05:56:15;;;;;;;7.47;1.23;;;;;;;1.26;87.86;102679.78;5053018;28;20546;-67
2023/04/03 05:58:41;;;;;;;6.63;1.67;;;;;;;1.38;88.01;102682.81;5053020;28;20442;-67
2023/04/03 06:01:08;;;;;;;13.77;1.10;;;;;;;1.39;88.32;102687.94;5053128;28;20530;-67
2023/04/03 06:03:35;;;;;;;7.60;2.17;;;;;;;1.47;88.29;102685.19;5053280;28;20451;-67
2023/04/03 06:06:05;;;;;;;5.43;1.13;;;;;;;1.63;88.17;102688.63;5053014;28;20458;-67
2023/04/03 06:08:32;;;;;;;6.60;1.20;;;;;;;1.71;88.32;102688.50;5052993;28;20521;-67
2023/04/03 06:10:59;;;;;;;7.07;1.47;;;;;;;1.85;88.37;102684.94;5052931;28;20521;-67
2023/04/03 06:13:25;;;;;;;6.40;1.20;;;;;;;1.90;87.71;102692.38;5053035;28;20525;-67
2023/04/03 06:15:52;;;;;;;6.77;1.03;;;;;;;1.94;87.06;102699.00;5052905;28;20549;-67
2023/04/03 06:18:19;;;;;;;4.97;0.83;;;;;;;2.05;86.66;102703.84;5052543;28;20519;-66
2023/04/03 06:20:46;;;;;;;9.17;1.10;;;;;;;2.10;87.11;102706.75;5052898;28;20450;-66
2023/04/03 06:23:14;;;;;;;6.70;1.00;;;;;;;2.13;86.96;102708.25;5052834;28;20438;-68
2023/04/03 06:25:41;;;;;;;6.43;0.90;;;;;;;2.20;86.59;102704.59;5052998;28;20996;-67
2023/04/03 06:28:09;;;;;;;6.20;1.37;;;;;;;2.28;86.51;102706.31;5056779;28;20446;-69
2023/04/03 06:30:37;;;;;;;5.40;1.00;;;;;;;2.33;86.14;102703.03;5056502;28;20528;-68
2023/04/03 06:33:04;;;;;;;6.17;0.87;;;;;;;2.42;85.14;102707.22;5056711;28;20535;-67
2023/04/03 06:35:31;;;;;;;4.30;0.57;;;;;;;2.47;85.07;102708.28;5080512;22;20521;-68
2023/04/03 06:37:58;;;;;;;6.17;1.20;;;;;;;2.52;83.71;102710.38;5056247;28;20445;-68
2023/04/03 06:40:26;;;;;;;5.80;0.90;;;;;;;2.52;82.73;102708.56;5056101;28;20978;-67
2023/04/03 06:42:53;;;;;;;10.93;1.80;;;;;;;2.58;81.06;102711.47;5056407;28;20480;-68
2023/04/03 06:45:20;;;;;;;7.33;1.10;;;;;;;2.65;81.46;102715.81;5056587;28;20462;-68
2023/04/03 06:47:46;;;;;;;6.40;0.97;;;;;;;2.65;80.25;102720.34;5056731;28;20446;-67
2023/04/03 06:50:14;;;;;;;5.53;1.20;;;;;;;2.67;79.79;102721.81;5056508;28;20438;-67
2023/04/03 06:52:41;;;;;;;4.70;0.80;;;;;;;2.71;79.20;102728.44;5055829;28;20837;-67
2023/04/03 06:55:09;;;;;;;4.53;0.87;;;;;;;2.75;79.84;102724.34;5056101;28;20558;-68
2023/04/03 06:57:37;;;;;;;5.40;0.80;;;;;;;2.76;77.70;102731.34;5055869;28;20492;-68
2023/04/03 07:00:05;;;;;;;4.80;0.70;;;;;;;2.81;77.21;102728.09;5056412;28;20440;-66
2023/04/03 07:02:32;;;;;;;4.70;0.80;;;;;;;2.81;75.55;102733.44;5055692;28;20469;-69
2023/04/03 07:04:59;;;;;;;6.10;0.80;;;;;;;2.91;74.92;102735.75;5055956;28;20442;-68
2023/04/03 07:07:25;;;;;;;5.47;0.83;;;;;;;2.90;73.08;102734.94;5055940;28;20813;-68
2023/04/03 07:09:52;;;;;;;10.43;1.17;;;;;;;2.90;72.37;102742.97;5055929;28;20529;-68
2023/04/03 07:12:18;;;;;;;4.33;0.53;;;;;;;2.93;71.49;102739.09;5055481;28;21030;-68
2023/04/03 07:14:46;;;;;;;4.10;0.40;;;;;;;3.06;72.00;102749.03;5055768;28;20438;-67
2023/04/03 07:17:13;;;;;;;5.30;0.80;;;;;;;3.15;70.61;102743.31;5055513;28;21112;-68
2023/04/03 07:19:39;;;;;;;6.40;0.80;;;;;;;3.27;69.42;102744.41;5055854;28;20537;-68
2023/04/03 07:22:06;;;;;;;5.70;1.23;;;;;;;3.44;69.99;102747.56;5055840;28;20885;-68
2023/04/03 07:24:33;;;;;;;4.97;0.60;;;;;;;3.49;68.82;102755.00;5055694;28;20449;-68
2023/04/03 07:27:00;;;;;;;9.70;0.80;;;;;;;3.66;70.15;102747.44;5055172;28;20987;-68
2023/04/03 07:29:26;;;;;;;6.50;1.00;;;;;;;3.61;65.60;102750.72;5055262;28;20445;-68
2023/04/03 07:31:55;;;;;;;5.37;1.30;;;;;;;3.54;65.49;102749.88;5055429;28;20478;-68
2023/04/03 07:34:21;;;;;;;4.30;0.60;;;;;;;3.69;67.28;102747.88;5055467;28;20442;-68
2023/04/03 07:36:48;;;;;;;6.10;0.87;;;;;;;3.69;65.34;102750.56;5054901;28;20556;-69
2023/04/03 07:39:15;;;;;;;6.67;0.97;;;;;;;3.78;65.83;102754.72;5055264;28;20450;-68
2023/04/03 07:41:42;;;;;;;7.37;1.43;;;;;;;3.92;66.76;102754.75;5054925;28;20993;-68
2023/04/03 07:44:09;;;;;;;5.53;0.90;;;;;;;4.05;65.47;102758.28;5055299;28;20457;-68
2023/04/03 07:46:36;;;;;;;8.70;0.90;;;;;;;4.21;64.83;102762.44;5055041;28;20573;-68
2023/04/03 07:49:04;;;;;;;6.80;0.70;;;;;;;4.42;63.50;102760.56;5054839;28;20541;-67
2023/04/03 07:51:31;;;;;;;5.63;1.00;;;;;;;4.66;62.87;102761.81;5054991;28;20581;-67
2023/04/03 07:53:57;;;;;;;12.17;1.40;;;;;;;4.68;60.08;102757.06;5055058;28;20809;-68
2023/04/03 07:56:24;;;;;;;5.27;0.80;;;;;;;4.79;61.35;102767.19;5055043;28;20467;-67
2023/04/03 07:58:51;;;;;;;12.97;0.73;;;;;;;4.95;61.31;102763.22;5055003;28;20514;-67
2023/04/03 08:01:18;;;;;;;13.20;0.90;;;;;;;5.00;57.37;102766.94;5055028;28;20880;-68
2023/04/03 08:03:44;;;;;;;5.63;0.70;;;;;;;4.99;58.46;102769.81;5054985;28;20446;-67
2023/04/03 08:06:13;;;;;;;5.07;0.67;;;;;;;5.04;57.82;102776.22;5054792;28;20469;-68
2023/04/03 08:08:40;;;;;;;4.30;0.50;;;;;;;5.16;57.37;102771.03;5055037;28;20446;-67
2023/04/03 08:11:07;;;;;;;4.90;0.53;;;;;;;5.86;70.96;102771.19;5054482;28;20544;-67
2023/04/03 08:13:35;;;;;;;4.87;0.50;;;;;;;6.44;70.05;102767.50;5054358;28;20478;-68
2023/04/03 08:16:09;;;;;;;4.20;0.40;;;;;;;6.66;62.31;102776.84;5054596;28;20489;-68
2023/04/03 08:18:35;;;;;;;4.37;0.70;;;;;;;6.71;56.76;102785.09;5054355;28;20987;-68
2023/04/03 08:21:06;;;;;;;4.70;0.70;;;;;;;6.80;55.86;102788.31;5054666;28;20435;-67
2023/04/03 08:23:34;;;;;;;4.47;0.70;;;;;;;6.83;55.68;102783.31;5054566;28;20446;-68
2023/04/03 08:26:06;;;;;;;4.43;0.60;;;;;;;6.77;54.37;102781.53;5054140;28;20466;-68
2023/04/03 08:28:33;;;;;;;4.93;0.70;;;;;;;6.88;54.13;102779.97;5054488;28;20423;-68
2023/04/03 08:31:05;;;;;;;11.93;1.13;;;;;;;6.87;54.61;102772.13;5054431;28;20493;-67
2023/04/03 08:33:32;;;;;;;4.20;0.50;;;;;;;6.75;53.82;102780.91;5054571;28;20476;-68
2023/04/03 08:35:58;;;;;;;6.00;1.23;;;;;;;6.82;53.94;102770.91;5054126;28;20470;-68
2023/04/03 08:38:25;;;;;;;5.27;0.70;;;;;;;6.74;54.13;102771.19;5054262;28;20485;-68
2023/04/03 08:41:05;;;;;;;4.97;0.80;;;;;;;6.71;54.51;102774.31;5054220;28;20451;-68
2023/04/03 08:43:39;;;;;;;4.50;0.60;;;;;;;6.63;53.27;102766.50;5053861;28;20430;-68
2023/04/03 08:46:10;;;;;;;4.70;0.73;;;;;;;6.72;54.96;102769.75;5054110;28;20482;-68
2023/04/03 08:48:42;;;;;;;6.50;0.70;;;;;;;6.60;53.34;102766.97;5053286;28;20489;-68
2023/04/03 08:51:15;;;;;;;4.60;0.60;;;;;;;6.65;52.75;102766.31;5053951;28;20423;-68
2023/04/03 08:53:48;;;;;;;7.33;0.80;;;;;;;6.56;53.14;102760.38;5053929;28;20466;-68
2023/04/03 08:56:18;;;;;;;5.23;0.80;;;;;;;6.74;52.46;102770.38;5053826;28;20450;-68
2023/04/03 08:58:50;;;;;;;4.57;0.67;;;;;;;7.03;50.45;102768.81;5054314;28;20456;-68
2023/04/03 09:01:21;;;;;;;4.40;0.50;;;;;;;7.02;48.28;102769.88;5053871;28;20514;-67
2023/04/03 09:03:47;;;;;;;4.50;0.60;;;;;;;7.32;52.50;102762.69;5053865;28;20427;-68
2023/04/03 09:06:17;;;;;;;4.50;0.53;;;;;;;7.67;50.84;102761.25;5053729;28;20497;-68
2023/04/03 09:08:47;;;;;;;6.93;0.70;;;;;;;7.87;49.85;102761.78;5053408;28;20449;-68
2023/04/03 09:11:22;;;;;;;4.70;0.97;;;;;;;7.74;45.88;102752.00;5053741;28;20442;-68
2023/04/03 09:13:55;;;;;;;4.40;0.60;;;;;;;7.75;49.44;102759.06;5053648;28;20470;-68
2023/04/03 09:16:33;;;;;;;6.40;0.70;;;;;;;7.74;49.12;102768.19;5053606;28;20466;-68
2023/04/03 09:19:12;;;;;;;4.50;0.60;;;;;;;7.81;49.05;102765.41;5053259;28;20426;-68
2023/04/03 09:21:42;;;;;;;8.00;0.80;;;;;;;7.86;48.65;102759.34;5053549;28;20458;-68
2023/04/03 09:24:11;;;;;;;4.93;0.80;;;;;;;7.92;47.99;102763.81;5053243;28;20529;-68
2023/04/03 09:26:44;;;;;;;4.50;0.70;;;;;;;7.83;48.40;102771.38;5053411;28;20462;-68
2023/04/03 09:29:18;;;;;;;4.90;0.70;;;;;;;7.61;48.66;102773.75;5053400;28;20426;-69
2023/04/03 09:31:46;;;;;;;7.00;0.50;;;;;;;7.19;48.83;102776.34;5053299;28;20455;-68
2023/04/03 09:34:20;;;;;;;4.80;0.57;;;;;;;7.11;49.46;102775.81;5053222;28;20438;-68
2023/04/03 09:36:48;;;;;;;4.57;0.63;;;;;;;7.17;50.95;102766.81;5052850;28;20572;-68
2023/04/03 09:39:18;;;;;;;4.60;0.70;;;;;;;7.19;49.79;102773.63;5053252;28;20661;-69
2023/04/03 09:41:58;;;;;;;4.40;0.60;;;;;;;7.30;50.09;102764.81;5053200;28;20442;-68
2023/04/03 09:44:27;;;;;;;7.20;0.90;;;;;;;7.41;50.76;102757.00;5053176;28;20521;-68
2023/04/03 09:46:54;;;;;;;5.37;0.80;;;;;;;7.58;48.98;102763.44;5052850;28;20976;-68
2023/04/03 09:49:20;;;;;;;8.77;0.60;;;;;;;7.40;47.55;102750.81;5052841;28;20484;-68
2023/04/03 09:51:47;;;;;;;6.80;1.07;;;;;;;7.51;48.95;102749.22;5053048;28;20471;-68
2023/04/03 09:54:33;;;;;;;5.03;0.90;;;;;;;7.72;49.21;102754.13;5052785;28;20445;-69
2023/04/03 09:57:04;;;;;;;6.20;0.93;;;;;;;8.07;48.34;102750.72;5052966;28;20462;-69
2023/04/03 09:59:32;;;;;;;4.40;0.60;;;;;;;8.32;48.21;102751.38;5052624;28;20490;-68
2023/04/03 10:02:01;;;;;;;4.40;0.70;;;;;;;8.55;47.66;102742.50;5052940;28;20444;-68
2023/04/03 10:04:38;;;;;;;4.40;0.60;;;;;;;8.51;46.10;102746.72;5052781;28;20493;-69
2023/04/03 10:07:29;;;;;;;5.43;0.90;;;;;;;7.78;47.21;102746.97;5052585;28;20458;-69
2023/04/03 10:09:58;;;;;;;4.30;0.50;;;;;;;7.75;45.09;102753.66;5052914;28;20508;-70
2023/04/03 10:12:26;;;;;;;4.50;0.60;;;;;;;8.06;47.24;102743.69;5052424;28;20994;-69
2023/04/03 10:14:57;;;;;;;5.93;1.07;;;;;;;8.27;46.44;102731.50;5052817;28;20449;-69
2023/04/03 10:17:36;;;;;;;4.83;0.60;;;;;;;8.42;44.76;102731.09;5052788;28;20431;-68
2023/04/03 10:20:11;;;;;;;5.80;0.67;;;;;;;8.11;45.39;102730.31;5052825;28;20776;-68
2023/04/03 10:22:47;;;;;;;4.50;0.60;;;;;;;7.90;45.51;102733.53;5052456;28;20521;-68
2023/04/03 10:25:23;;;;;;;4.40;0.60;;;;;;;7.69;46.23;102726.78;5052645;28;20474;-69
2023/04/03 10:27:56;;;;;;;5.13;0.60;;;;;;;7.73;46.89;102728.78;5052742;28;20437;-68
2023/04/03 10:30:35;;;;;;;4.30;0.50;;;;;;;8.11;45.84;102734.91;5052426;28;20461;-68
2023/04/03 10:33:18;;;;;;;8.00;0.97;;;;;;;8.26;45.40;102733.38;5052602;28;20466;-68
2023/04/03 10:35:55;;;;;;;5.13;0.70;;;;;;;7.96;44.73;102727.22;5052306;28;20507;-68
2023/04/03 10:38:32;;;;;;;15.17;0.80;;;;;;;7.89;44.09;102721.09;5052316;28;20517;-69
2023/04/03 10:41:03;;;;;;;4.53;0.50;;;;;;;7.67;46.02;102724.31;5052615;28;20513;-69
2023/04/03 10:43:37;;;;;;;4.30;0.40;;;;;;;7.90;45.46;102720.06;5052543;28;20441;-68
2023/04/03 10:46:10;;;;;;;4.50;0.60;;;;;;;8.09;45.04;102721.63;5052237;28;20468;-68
2023/04/03 10:48:48;;;;;;;5.80;0.77;;;;;;;8.25;45.71;102720.13;5052555;28;20613;-69
2023/04/03 10:51:26;;;;;;;5.07;0.80;;;;;;;8.39;45.24;102718.88;5052581;28;20865;-68
2023/04/03 10:53:57;;;;;;;4.40;0.50;;;;;;;8.58;45.59;102714.19;5052430;28;20462;-68
2023/04/03 10:56:32;;;;;;;5.13;0.90;;;;;;;8.94;43.70;102707.72;5052436;28;20470;-68
2023/04/03 10:59:19;;;;;;;4.90;0.60;;;;;;;9.27;42.19;102698.94;5052128;28;20806;-70
2023/04/03 11:01:51;;;;;;;5.97;0.83;;;;;;;9.44;41.62;102695.47;5052193;28;21137;-69
2023/04/03 11:04:20;;;;;;;5.67;0.67;;;;;;;9.62;43.11;102692.56;5052275;28;20426;-69
2023/04/03 11:06:53;;;;;;;4.60;0.70;;;;;;;10.01;42.62;102701.66;5052312;28;20466;-69
2023/04/03 11:09:25;;;;;;;5.90;1.03;;;;;;;10.05;42.34;102693.88;5052328;28;20439;-68
2023/04/03 11:11:56;;;;;;;4.30;0.50;;;;;;;9.70;41.53;102691.38;5053209;28;20423;-68
2023/04/03 11:14:29;;;;;;;4.30;0.40;;;;;;;9.21;44.03;102694.50;5055036;28;20473;-69
2023/04/03 11:17:06;;;;;;;5.00;0.80;;;;;;;9.07;42.03;102687.69;5055354;28;20826;-68
2023/04/03 11:19:38;;;;;;;5.27;0.67;;;;;;;8.99;42.40;102688.09;5055342;28;20488;-69
2023/04/03 11:22:14;;;;;;;5.50;0.80;;;;;;;8.87;42.97;102682.69;5054862;28;20431;-70
2023/04/03 11:24:43;;;;;;;4.90;0.70;;;;;;;8.65;44.09;102687.06;5054839;28;20915;-69
2023/04/03 11:27:16;;;;;;;9.90;1.07;;;;;;;8.64;44.54;102667.34;5055045;28;20437;-69
2023/04/03 11:29:47;;;;;;;4.63;0.70;;;;;;;8.50;43.16;102682.13;5054696;28;20803;-69
2023/04/03 11:32:32;;;;;;;4.90;0.63;;;;;;;8.09;43.25;102681.13;5055025;28;20438;-69
2023/04/03 11:35:01;;;;;;;7.17;0.67;;;;;;;8.18;43.71;102676.22;5054358;28;20609;-69
2023/04/03 11:37:35;;;;;;;5.57;0.93;;;;;;;8.17;41.96;102671.88;5054785;28;20442;-69
2023/04/03 11:40:07;;;;;;;4.70;0.80;;;;;;;8.04;44.88;102671.03;5054475;28;20477;-69